createdAt,value
2023-02-22T00:01:50.854Z,48.54
2023-02-22T00:04:21.166Z,48.52
2023-02-22T00:06:49.022Z,48.31
2023-02-22T00:09:20.559Z,48.58
2023-02-22T00:11:53.116Z,48.45
2023-02-22T00:14:22.183Z,48.40
2023-02-22T00:16:50.028Z,48.55
2023-02-22T00:19:19.135Z,48.43
2023-02-22T00:21:53.028Z,48.28
2023-02-22T00:24:27.388Z,48.81
2023-02-22T00:26:57.929Z,48.39
2023-02-22T00:29:25.170Z,48.66
2023-02-22T00:31:51.982Z,48.52
2023-02-22T00:34:21.485Z,48.44
2023-02-22T00:36:48.574Z,48.62
2023-02-22T00:39:15.593Z,48.34
2023-02-22T00:41:42.299Z,48.43
2023-02-22T00:44:08.908Z,48.35
2023-02-22T00:46:35.730Z,48.57
2023-02-22T00:49:02.301Z,48.65
2023-02-22T00:51:28.964Z,47.62
2023-02-22T00:53:55.555Z,48.92
2023-02-22T00:56:22.284Z,48.45
2023-02-22T00:58:51.104Z,48.73
2023-02-22T01:01:18.088Z,48.58
2023-02-22T01:03:46.877Z,48.55
2023-02-22T01:06:13.692Z,48.68
2023-02-22T01:08:44.446Z,48.55
2023-02-22T01:11:11.119Z,48.58
2023-02-22T01:13:38.266Z,48.77
2023-02-22T01:16:08.346Z,48.47
2023-02-22T01:18:38.154Z,48.71
2023-02-22T01:21:05.185Z,48.30
2023-02-22T01:23:31.865Z,48.55
2023-02-22T01:25:58.706Z,48.46
2023-02-22T01:28:25.279Z,48.46
2023-02-22T01:30:52.019Z,48.90
2023-02-22T01:33:18.627Z,48.31
2023-02-22T01:35:46.416Z,48.34
2023-02-22T01:38:16.851Z,48.54
2023-02-22T01:40:50.530Z,48.21
2023-02-22T01:43:23.681Z,48.27
2023-02-22T01:46:00.860Z,48.75
2023-02-22T01:48:35.442Z,48.48
2023-02-22T01:51:13.018Z,48.24
2023-02-22T01:53:52.339Z,48.57
2023-02-22T01:56:19.542Z,48.61
2023-02-22T01:58:49.333Z,48.44
2023-02-22T02:01:17.171Z,48.46
2023-02-22T02:03:49.194Z,48.40
2023-02-22T02:06:15.972Z,48.50
2023-02-22T02:08:55.671Z,48.49
2023-02-22T02:11:25.525Z,48.41
2023-02-22T02:13:55.113Z,48.67
2023-02-22T02:16:27.664Z,48.74
2023-02-22T02:18:54.541Z,48.28
2023-02-22T02:21:40.954Z,48.71
2023-02-22T02:24:29.182Z,48.54
2023-02-22T02:27:03.107Z,48.34
2023-02-22T02:29:51.463Z,48.67
2023-02-22T02:32:27.138Z,48.65
2023-02-22T02:35:15.317Z,48.67
2023-02-22T02:37:50.921Z,48.67
2023-02-22T02:40:23.484Z,48.65
2023-02-22T02:42:55.982Z,48.71
2023-02-22T02:45:30.655Z,48.63
2023-02-22T02:47:58.905Z,48.66
2023-02-22T02:50:31.598Z,48.53
2023-02-22T02:53:01.087Z,48.47
2023-02-22T02:55:31.065Z,48.66
2023-02-22T02:57:57.692Z,48.42
2023-02-22T03:00:28.205Z,48.50
2023-02-22T03:03:05.650Z,48.69
2023-02-22T03:06:04.882Z,48.31
2023-02-22T03:08:57.228Z,48.53
2023-02-22T03:11:34.610Z,48.56
2023-02-22T03:14:15.848Z,48.73
2023-02-22T03:16:45.446Z,48.56
2023-02-22T03:19:41.046Z,48.56
2023-02-22T03:22:37.932Z,48.60
2023-02-22T03:25:15.425Z,48.59
2023-02-22T03:28:14.110Z,48.48
2023-02-22T03:30:47.417Z,48.48
2023-02-22T03:33:33.747Z,48.18
2023-02-22T03:36:03.675Z,48.49
2023-02-22T03:38:33.022Z,48.43
2023-02-22T03:41:01.039Z,48.27
2023-02-22T03:43:45.117Z,48.46
2023-02-22T03:49:24.490Z,48.31
2023-02-22T03:51:53.868Z,48.30
2023-02-22T03:54:20.569Z,48.26
2023-02-22T03:56:53.419Z,48.41
2023-02-22T03:59:20.015Z,48.46
2023-02-22T04:01:46.628Z,49.05
2023-02-22T04:04:13.244Z,48.42
2023-02-22T04:06:39.816Z,48.56
2023-02-22T04:09:08.778Z,48.64
2023-02-22T04:11:35.642Z,48.38
2023-02-22T04:14:02.263Z,48.20
2023-02-22T04:16:28.881Z,48.70
2023-02-22T04:18:55.513Z,48.69
2023-02-22T04:21:25.000Z,48.63
2023-02-22T04:23:53.742Z,48.54
2023-02-22T04:26:20.495Z,48.96
2023-02-22T04:28:47.182Z,48.40
2023-02-22T04:31:13.918Z,48.47
2023-02-22T04:33:40.600Z,48.68
2023-02-22T04:36:07.717Z,48.65
2023-02-22T04:38:36.693Z,48.79
2023-02-22T04:41:03.349Z,48.74
2023-02-22T04:43:32.085Z,48.42
2023-02-22T04:45:58.701Z,48.64
2023-02-22T04:48:25.235Z,48.62
2023-02-22T04:50:52.260Z,48.52
2023-02-22T04:53:18.809Z,47.98
2023-02-22T04:55:45.485Z,48.63
2023-02-22T04:58:11.974Z,48.09
2023-02-22T05:00:38.520Z,48.50
2023-02-22T05:03:05.258Z,48.53
2023-02-22T05:05:31.777Z,48.64
2023-02-22T05:07:58.350Z,48.55
2023-02-22T05:10:24.908Z,48.57
2023-02-22T05:12:51.855Z,48.44
2023-02-22T05:15:21.710Z,48.54
2023-02-22T05:17:48.429Z,48.23
2023-02-22T05:20:22.468Z,48.39
2023-02-22T05:22:49.128Z,48.80
2023-02-22T05:25:15.657Z,48.42
2023-02-22T05:27:42.351Z,48.67
2023-02-22T05:30:10.601Z,48.53
2023-02-22T05:32:37.233Z,48.07
2023-02-22T05:35:06.120Z,45.10
2023-02-22T05:37:32.673Z,42.59
2023-02-22T05:39:59.438Z,40.96
2023-02-22T05:42:25.957Z,39.79
2023-02-22T05:44:53.278Z,39.50
2023-02-22T05:47:19.820Z,39.14
2023-02-22T05:49:46.335Z,38.89
2023-02-22T05:52:12.954Z,38.82
2023-02-22T05:54:39.433Z,38.43
2023-02-22T05:57:05.986Z,39.06
2023-02-22T05:59:32.642Z,40.08
2023-02-22T06:01:59.217Z,40.89
2023-02-22T06:04:25.751Z,41.79
2023-02-22T06:06:52.257Z,41.95
2023-02-22T06:09:18.772Z,42.52
2023-02-22T06:11:45.281Z,42.70
2023-02-22T06:14:11.792Z,42.55
2023-02-22T06:16:38.394Z,43.40
2023-02-22T06:19:04.881Z,43.46
2023-02-22T06:21:31.499Z,43.79
2023-02-22T06:23:58.020Z,44.01
2023-02-22T06:26:24.500Z,44.02
2023-02-22T06:28:51.016Z,44.22
2023-02-22T06:31:17.919Z,44.56
2023-02-22T06:33:44.756Z,44.05
2023-02-22T06:36:11.491Z,43.99
2023-02-22T06:38:38.086Z,44.02
2023-02-22T06:41:04.758Z,44.55
2023-02-22T06:43:31.282Z,44.48
2023-02-22T06:45:57.804Z,44.65
2023-02-22T06:48:24.388Z,43.23
2023-02-22T06:50:51.249Z,43.10
2023-02-22T06:53:17.808Z,42.76
2023-02-22T06:55:44.335Z,41.35
2023-02-22T06:58:11.074Z,40.01
2023-02-22T07:00:37.768Z,39.36
2023-02-22T07:03:04.540Z,39.57
2023-02-22T07:05:31.215Z,40.29
2023-02-22T07:08:02.996Z,40.96
2023-02-22T07:10:30.581Z,41.54
2023-02-22T07:12:57.196Z,41.66
2023-02-22T07:15:24.599Z,42.08
2023-02-22T07:17:52.009Z,42.41
2023-02-22T07:20:20.699Z,42.57
2023-02-22T07:22:48.040Z,42.61
2023-02-22T07:25:14.678Z,42.73
2023-02-22T07:27:41.628Z,43.13
2023-02-22T07:30:15.876Z,42.97
2023-02-22T07:32:43.258Z,43.06
2023-02-22T07:35:17.681Z,43.49
2023-02-22T07:37:44.676Z,43.76
2023-02-22T07:40:11.893Z,43.69
2023-02-22T07:42:54.313Z,43.80
2023-02-22T07:45:21.129Z,43.79
2023-02-22T07:47:48.329Z,43.87
2023-02-22T07:50:16.037Z,44.00
2023-02-22T07:52:49.718Z,44.39
2023-02-22T07:55:17.358Z,44.25
2023-02-22T07:57:45.729Z,44.24
2023-02-22T08:00:14.555Z,44.26
2023-02-22T08:02:44.096Z,44.49
2023-02-22T08:05:11.029Z,44.34
2023-02-22T08:07:38.115Z,44.65
2023-02-22T08:10:06.723Z,44.54
2023-02-22T08:12:36.707Z,44.80
2023-02-22T08:15:04.786Z,44.72
2023-02-22T08:17:31.320Z,44.97
2023-02-22T08:19:58.011Z,44.79
2023-02-22T08:22:24.681Z,45.04
2023-02-22T08:24:54.267Z,44.79
2023-02-22T08:27:25.436Z,45.21
2023-02-22T08:29:52.317Z,45.25
2023-02-22T08:32:19.076Z,45.29
2023-02-22T08:34:45.701Z,45.18
2023-02-22T08:37:12.346Z,45.09
2023-02-22T08:39:38.935Z,45.23
2023-02-22T08:42:05.840Z,45.21
2023-02-22T08:44:32.519Z,45.31
2023-02-22T08:46:59.124Z,45.03
2023-02-22T08:49:25.759Z,45.24
2023-02-22T08:51:52.328Z,45.53
2023-02-22T08:54:18.962Z,45.63
2023-02-22T08:56:45.521Z,45.30
2023-02-22T08:59:12.339Z,45.37
2023-02-22T09:01:39.416Z,45.46
2023-02-22T09:04:06.268Z,45.44
2023-02-22T09:06:32.865Z,45.79
2023-02-22T09:08:59.472Z,45.83
2023-02-22T09:11:26.168Z,45.56
2023-02-22T09:13:52.805Z,45.53
2023-02-22T09:16:19.406Z,45.64
2023-02-22T09:18:46.028Z,45.55
2023-02-22T09:21:12.667Z,45.35
2023-02-22T09:23:39.216Z,45.62
2023-02-22T09:26:08.712Z,45.96
2023-02-22T09:28:35.310Z,45.87
2023-02-22T09:31:02.171Z,45.50
2023-02-22T09:33:28.754Z,45.71
2023-02-22T09:35:55.436Z,45.81
2023-02-22T09:38:23.141Z,45.78
2023-02-22T09:40:54.373Z,45.69
2023-02-22T09:43:24.767Z,45.72
2023-02-22T09:46:20.740Z,45.74
2023-02-22T09:48:53.509Z,45.79
2023-02-22T09:51:20.640Z,45.73
2023-02-22T09:53:49.860Z,45.79
2023-02-22T09:56:18.718Z,46.01
2023-02-22T09:58:46.888Z,45.80
2023-02-22T10:01:19.461Z,46.02
2023-02-22T10:03:52.138Z,46.12
2023-02-22T10:06:23.689Z,45.83
2023-02-22T10:08:56.499Z,45.62
2023-02-22T10:11:53.564Z,45.75
2023-02-22T10:14:43.991Z,46.03
2023-02-22T10:17:35.113Z,45.92
2023-02-22T10:20:17.082Z,45.91
2023-02-22T10:23:08.989Z,45.64
2023-02-22T10:25:36.748Z,46.15
2023-02-22T10:28:24.418Z,46.06
2023-02-22T10:30:56.796Z,45.86
2023-02-22T10:33:26.703Z,45.90
2023-02-22T10:35:54.130Z,45.99
2023-02-22T10:38:23.627Z,45.95
2023-02-22T10:40:59.252Z,45.87
2023-02-22T10:43:25.764Z,45.92
2023-02-22T10:45:58.001Z,45.86
2023-02-22T10:48:25.026Z,46.05
2023-02-22T10:50:53.175Z,46.45
2023-02-22T10:53:19.710Z,45.98
2023-02-22T10:56:24.886Z,46.12
2023-02-22T10:58:59.463Z,46.01
2023-02-22T11:01:31.986Z,45.95
2023-02-22T11:03:59.195Z,46.00
2023-02-22T11:06:25.740Z,46.09
2023-02-22T11:08:52.392Z,46.11
2023-02-22T11:11:29.348Z,46.09
2023-02-22T11:13:56.301Z,46.26
2023-02-22T11:16:34.589Z,46.23
2023-02-22T11:19:10.510Z,46.20
2023-02-22T11:21:37.207Z,46.25
2023-02-22T11:24:11.227Z,46.19
2023-02-22T11:26:43.740Z,46.16
2023-02-22T11:29:32.393Z,46.12
2023-02-22T11:32:01.242Z,46.31
2023-02-22T11:34:35.305Z,46.28
2023-02-22T11:37:33.952Z,46.30
2023-02-22T11:40:04.698Z,46.33
2023-02-22T11:42:31.171Z,46.00
2023-02-22T11:45:11.315Z,46.20
2023-02-22T11:48:00.092Z,46.31
2023-02-22T11:50:28.237Z,46.12
2023-02-22T11:53:36.634Z,46.20
2023-02-22T11:56:40.544Z,46.18
2023-02-22T11:59:25.427Z,46.38
2023-02-22T12:02:00.911Z,46.16
2023-02-22T12:04:27.335Z,46.25
2023-02-22T12:07:30.174Z,46.24
2023-02-22T12:10:05.405Z,46.16
2023-02-22T12:12:50.145Z,46.22
2023-02-22T12:15:40.418Z,46.41
2023-02-22T12:18:28.376Z,46.06
2023-02-22T12:21:00.226Z,45.71
2023-02-22T12:23:52.124Z,46.29
2023-02-22T12:26:36.352Z,46.42
2023-02-22T12:29:07.123Z,46.24
2023-02-22T12:31:38.942Z,46.31
2023-02-22T12:34:11.997Z,46.43
2023-02-22T12:36:43.707Z,46.42
2023-02-22T12:39:53.276Z,46.46
2023-02-22T12:42:41.898Z,46.36
2023-02-22T12:45:16.909Z,46.53
2023-02-22T12:47:48.100Z,46.24
2023-02-22T12:50:20.653Z,46.43
2023-02-22T12:52:53.578Z,46.62
2023-02-22T12:55:21.158Z,46.29
2023-02-22T12:58:04.538Z,46.42
2023-02-22T13:00:45.686Z,46.61
2023-02-22T13:03:15.194Z,46.46
2023-02-22T13:05:42.270Z,46.09
2023-02-22T13:08:27.080Z,46.34
2023-02-22T13:11:19.265Z,46.80
2023-02-22T13:14:04.311Z,46.51
2023-02-22T13:16:58.115Z,46.38
2023-02-22T13:19:30.498Z,46.20
2023-02-22T13:22:05.770Z,46.26
2023-02-22T13:24:53.808Z,46.20
2023-02-22T13:27:39.826Z,46.25
2023-02-22T13:30:07.233Z,46.21
2023-02-22T13:32:59.806Z,46.24
2023-02-22T13:35:41.489Z,46.18
2023-02-22T13:38:20.223Z,46.14
2023-02-22T13:41:01.800Z,46.40
2023-02-22T13:43:53.822Z,46.28
2023-02-22T13:46:20.508Z,46.41
2023-02-22T13:49:14.510Z,46.26
2023-02-22T13:51:51.414Z,46.39
2023-02-22T13:54:47.691Z,46.47
2023-02-22T13:57:27.938Z,46.54
2023-02-22T14:00:17.894Z,46.51
2023-02-22T14:03:09.959Z,46.56
2023-02-22T14:05:39.634Z,46.82
2023-02-22T14:08:06.647Z,46.98
2023-02-22T14:10:48.636Z,46.52
2023-02-22T14:13:26.739Z,46.39
2023-02-22T14:16:02.584Z,46.44
2023-02-22T14:18:40.818Z,46.75
2023-02-22T14:21:13.432Z,46.26
2023-02-22T14:23:41.206Z,46.63
2023-02-22T14:26:11.216Z,46.65
2023-02-22T14:28:52.438Z,46.57
2023-02-22T14:31:37.048Z,46.79
2023-02-22T14:34:23.001Z,46.53
2023-02-22T14:37:12.372Z,46.81
2023-02-22T14:39:46.684Z,46.53
2023-02-22T14:42:35.101Z,46.66
2023-02-22T14:45:17.171Z,46.72
2023-02-22T14:47:54.399Z,46.74
2023-02-22T14:50:25.810Z,46.33
2023-02-22T14:53:23.990Z,46.77
2023-02-22T14:55:58.056Z,46.53
2023-02-22T14:58:29.557Z,46.49
2023-02-22T15:00:57.041Z,46.77
2023-02-22T15:03:40.253Z,46.50
2023-02-22T15:06:21.942Z,46.82
2023-02-22T15:08:49.007Z,46.62
2023-02-22T15:11:21.922Z,46.60
2023-02-22T15:13:52.835Z,46.70
2023-02-22T15:16:19.846Z,46.65
2023-02-22T15:18:47.906Z,46.91
2023-02-22T15:21:19.498Z,46.88
2023-02-22T15:23:53.117Z,46.94
2023-02-22T15:26:37.520Z,46.93
2023-02-22T15:29:15.192Z,46.76
2023-02-22T15:31:48.247Z,47.07
2023-02-22T15:34:26.718Z,46.78
2023-02-22T15:36:54.894Z,46.91
2023-02-22T15:39:46.672Z,46.90
2023-02-22T15:42:21.864Z,46.70
2023-02-22T15:44:49.358Z,46.75
2023-02-22T15:47:23.742Z,46.94
2023-02-22T15:50:16.320Z,46.80
2023-02-22T15:53:40.036Z,46.87
2023-02-22T15:56:10.485Z,46.83
2023-02-22T15:58:37.201Z,46.88
2023-02-22T16:01:08.923Z,46.90
2023-02-22T16:03:44.723Z,46.87
2023-02-22T16:06:19.960Z,47.20
2023-02-22T16:08:55.173Z,46.83
2023-02-22T16:11:35.297Z,46.97
2023-02-22T16:14:22.918Z,46.36
2023-02-22T16:16:49.598Z,46.92
2023-02-22T16:19:24.804Z,47.02
2023-02-22T16:22:02.902Z,47.03
2023-02-22T16:24:31.659Z,46.96
2023-02-22T16:27:15.898Z,47.06
2023-02-22T16:29:43.311Z,46.90
2023-02-22T16:32:10.146Z,46.75
2023-02-22T16:34:37.165Z,46.71
2023-02-22T16:37:03.925Z,46.84
2023-02-22T16:39:31.396Z,47.23
2023-02-22T16:42:02.188Z,47.21
2023-02-22T16:44:29.029Z,47.09
2023-02-22T16:46:57.848Z,46.94
2023-02-22T16:49:24.578Z,46.80
2023-02-22T16:51:55.371Z,46.96
2023-02-22T16:54:30.304Z,46.91
2023-02-22T16:56:57.481Z,47.19
2023-02-22T16:59:24.157Z,47.19
2023-02-22T17:01:50.767Z,46.77
2023-02-22T17:04:26.584Z,47.10
2023-02-22T17:06:53.237Z,46.95
2023-02-22T17:09:22.762Z,46.93
2023-02-22T17:11:49.912Z,47.29
2023-02-22T17:14:18.060Z,46.84
2023-02-22T17:16:46.948Z,46.97
2023-02-22T17:19:18.856Z,46.92
2023-02-22T17:21:45.629Z,46.96
2023-02-22T17:24:13.644Z,47.04
2023-02-22T17:26:48.963Z,47.03
2023-02-22T17:29:16.338Z,47.30
2023-02-22T17:31:43.641Z,47.18
2023-02-22T17:34:10.139Z,47.17
2023-02-22T17:36:36.661Z,47.13
2023-02-22T17:39:03.727Z,47.28
2023-02-22T17:41:30.197Z,47.64
2023-02-22T17:43:58.037Z,47.38
2023-02-22T17:46:25.288Z,47.69
2023-02-22T17:48:54.114Z,47.57
2023-02-22T17:51:21.797Z,47.62
2023-02-22T17:53:48.379Z,47.23
2023-02-22T17:56:18.533Z,47.47
2023-02-22T17:58:46.333Z,47.48
2023-02-22T18:01:27.338Z,47.78
2023-02-22T18:03:54.835Z,47.50
2023-02-22T18:06:24.947Z,47.47
2023-02-22T18:08:55.782Z,47.52
2023-02-22T18:11:26.227Z,47.50
2023-02-22T18:13:56.720Z,47.50
2023-02-22T18:16:23.763Z,47.59
2023-02-22T18:18:50.377Z,47.49
2023-02-22T18:21:16.895Z,47.12
2023-02-22T18:23:44.839Z,47.83
2023-02-22T18:26:19.615Z,47.58
2023-02-22T18:28:48.615Z,47.56
2023-02-22T18:31:16.406Z,47.57
2023-02-22T18:33:43.983Z,47.56
2023-02-22T18:36:13.496Z,47.67
2023-02-22T18:38:43.690Z,47.43
2023-02-22T18:41:17.415Z,47.67
2023-02-22T18:43:43.967Z,47.78
2023-02-22T18:46:12.351Z,47.73
2023-02-22T18:48:39.027Z,47.80
2023-02-22T18:51:07.923Z,47.61
2023-02-22T18:53:34.544Z,47.80
2023-02-22T18:56:08.676Z,47.74
2023-02-22T18:58:35.624Z,47.64
2023-02-22T19:01:02.556Z,47.53
2023-02-22T19:03:29.382Z,47.50
2023-02-22T19:06:00.631Z,47.63
2023-02-22T19:08:27.140Z,47.50
2023-02-22T19:10:53.697Z,47.02
2023-02-22T19:13:21.109Z,46.91
2023-02-22T19:15:48.911Z,46.95
2023-02-22T19:18:15.507Z,46.79
2023-02-22T19:20:42.083Z,46.21
2023-02-22T19:23:10.553Z,45.75
2023-02-22T19:25:41.154Z,45.30
2023-02-22T19:28:07.740Z,45.39
2023-02-22T19:30:34.291Z,45.66
2023-02-22T19:33:04.342Z,46.19
2023-02-22T19:35:31.019Z,46.04
2023-02-22T19:37:58.186Z,46.53
2023-02-22T19:40:24.852Z,46.44
2023-02-22T19:42:51.735Z,46.67
2023-02-22T19:45:21.501Z,46.79
2023-02-22T19:47:54.655Z,47.10
2023-02-22T19:50:21.342Z,46.98
2023-02-22T19:52:48.273Z,47.11
2023-02-22T19:55:17.457Z,47.42
2023-02-22T19:57:49.860Z,47.37
2023-02-22T20:00:24.258Z,47.26
2023-02-22T20:02:59.234Z,47.23
2023-02-22T20:05:25.745Z,47.66
2023-02-22T20:07:52.300Z,47.29
2023-02-22T20:10:19.147Z,47.44
2023-02-22T20:12:47.914Z,47.53
2023-02-22T20:15:14.701Z,47.52
2023-02-22T20:17:41.736Z,47.61
2023-02-22T20:20:09.343Z,47.49
2023-02-22T20:22:35.997Z,47.82
2023-02-22T20:25:02.575Z,47.48
2023-02-22T20:27:29.282Z,47.64
2023-02-22T20:29:55.852Z,47.38
2023-02-22T20:32:24.562Z,47.42
2023-02-22T20:34:51.290Z,47.66
2023-02-22T20:37:18.333Z,47.11
2023-02-22T20:39:44.918Z,47.22
2023-02-22T20:42:11.865Z,47.59
2023-02-22T20:44:38.473Z,47.57
2023-02-22T20:47:05.191Z,47.53
2023-02-22T20:49:31.875Z,47.88
2023-02-22T20:51:58.427Z,47.44
2023-02-22T20:54:24.968Z,47.72
2023-02-22T20:56:53.065Z,47.47
2023-02-22T20:59:20.049Z,47.72
2023-02-22T21:01:50.098Z,47.60
2023-02-22T21:04:17.456Z,47.64
2023-02-22T21:06:44.524Z,48.13
2023-02-22T21:09:13.308Z,47.80
2023-02-22T21:11:40.181Z,47.65
2023-02-22T21:14:06.757Z,47.69
2023-02-22T21:16:35.550Z,47.44
2023-02-22T21:19:04.079Z,48.02
2023-02-22T21:21:30.890Z,47.85
2023-02-22T21:24:01.687Z,47.88
2023-02-22T21:26:30.516Z,47.75
2023-02-22T21:29:05.193Z,47.93
2023-02-22T21:31:32.120Z,48.01
2023-02-22T21:33:59.082Z,47.93
2023-02-22T21:36:26.069Z,47.88
2023-02-22T21:39:00.222Z,47.94
2023-02-22T21:41:30.571Z,48.11
2023-02-22T21:43:58.266Z,47.89
2023-02-22T21:46:25.613Z,48.01
2023-02-22T21:48:53.378Z,48.26
2023-02-22T21:51:25.456Z,48.18
2023-02-22T21:53:54.842Z,48.08
2023-02-22T21:56:28.962Z,48.08
2023-02-22T21:58:59.836Z,47.98
2023-02-22T22:01:30.969Z,48.40
2023-02-22T22:03:59.716Z,48.16
2023-02-22T22:06:27.886Z,47.91
2023-02-22T22:08:54.649Z,48.18
2023-02-22T22:11:21.526Z,48.16
2023-02-22T22:13:49.125Z,48.05
2023-02-22T22:16:18.412Z,47.75
2023-02-22T22:18:45.472Z,48.12
2023-02-22T22:21:16.516Z,48.07
2023-02-22T22:23:45.484Z,47.99
2023-02-22T22:26:12.035Z,48.06
2023-02-22T22:28:39.766Z,48.11
2023-02-22T22:31:06.874Z,48.11
2023-02-22T22:33:33.980Z,48.11
2023-02-22T22:36:00.712Z,48.15
2023-02-22T22:38:27.454Z,48.11
2023-02-22T22:40:54.289Z,48.15
2023-02-22T22:43:20.844Z,48.52
2023-02-22T22:45:47.817Z,48.53
2023-02-22T22:48:15.022Z,48.21
2023-02-22T22:50:45.554Z,48.21
2023-02-22T22:53:16.377Z,48.38
2023-02-22T22:55:42.969Z,48.22
2023-02-22T22:58:13.210Z,48.29
2023-02-22T23:00:41.379Z,48.46
2023-02-22T23:03:09.533Z,48.35
2023-02-22T23:05:37.947Z,48.40
2023-02-22T23:08:05.006Z,48.33
2023-02-22T23:10:39.190Z,48.48
2023-02-22T23:13:10.387Z,48.46
2023-02-22T23:15:40.860Z,48.30
2023-02-22T23:18:07.572Z,48.37
2023-02-22T23:20:38.625Z,48.46
2023-02-22T23:23:06.129Z,48.42
2023-02-22T23:25:38.912Z,48.50
2023-02-22T23:28:14.614Z,48.56
2023-02-22T23:30:41.823Z,48.50
2023-02-22T23:33:08.559Z,48.59
2023-02-22T23:35:35.153Z,48.41
2023-02-22T23:38:01.929Z,48.54
2023-02-22T23:40:29.079Z,48.59
2023-02-22T23:42:55.694Z,48.61
2023-02-22T23:45:22.973Z,48.54
2023-02-22T23:47:54.966Z,48.57
2023-02-22T23:50:25.379Z,48.76
2023-02-22T23:52:58.999Z,48.63
2023-02-22T23:55:31.421Z,48.34
2023-02-22T23:57:59.515Z,48.67
